createdAt,value
2023-11-08T00:14:52.644Z,7.70
2023-11-08T00:29:55.021Z,7.90
2023-11-08T00:44:57.442Z,7.90
2023-11-08T00:59:59.894Z,10.30
2023-11-08T01:15:02.478Z,8.10
2023-11-08T01:30:05.852Z,8.20
2023-11-08T01:45:08.542Z,8.20
2023-11-08T02:00:13.603Z,8.30
2023-11-08T02:15:17.626Z,8.00
2023-11-08T02:30:20.112Z,7.90
2023-11-08T02:45:22.717Z,7.90
2023-11-08T03:00:25.281Z,7.80
2023-11-08T03:15:27.824Z,8.00
2023-11-08T03:30:30.222Z,7.90
2023-11-08T03:45:32.736Z,7.90
2023-11-08T04:00:35.161Z,7.80
2023-11-08T04:15:37.648Z,7.80
2023-11-08T04:30:40.176Z,7.70
2023-11-08T04:45:42.594Z,7.80
2023-11-08T05:00:45.007Z,7.90
2023-11-08T05:15:48.152Z,7.80
2023-11-08T05:30:50.594Z,7.90
2023-11-08T05:45:53.273Z,7.90
2023-11-08T06:00:55.664Z,7.80
2023-11-08T06:15:58.057Z,7.70
2023-11-08T06:31:00.598Z,7.70
2023-11-08T06:46:03.178Z,7.80
2023-11-08T07:01:11.579Z,7.60
2023-11-08T07:16:15.265Z,7.30
2023-11-08T07:31:17.697Z,7.60
2023-11-08T07:46:20.084Z,7.50
2023-11-08T08:01:22.688Z,7.70
2023-11-08T08:16:25.959Z,7.80
2023-11-08T08:31:28.873Z,7.90
2023-11-08T08:46:31.290Z,8.10
2023-11-08T09:01:33.666Z,8.10
2023-11-08T09:16:39.314Z,8.00
2023-11-08T09:31:43.303Z,8.20
2023-11-08T09:46:46.791Z,8.60
2023-11-08T10:01:52.460Z,8.40
2023-11-08T10:16:56.801Z,8.70
2023-11-08T10:32:00.845Z,8.60
2023-11-08T10:47:03.656Z,8.80
2023-11-08T11:02:25.776Z,9.00
2023-11-08T11:17:33.349Z,9.40
2023-11-08T11:32:37.149Z,9.60
2023-11-08T11:47:42.847Z,9.80
2023-11-08T12:02:45.449Z,9.90
2023-11-08T12:17:49.440Z,11.40
2023-11-08T12:32:52.102Z,10.00
2023-11-08T12:48:10.887Z,9.90
2023-11-08T13:03:15.532Z,10.20
2023-11-08T13:18:18.001Z,9.90
2023-11-08T13:33:20.546Z,10.00
2023-11-08T13:48:23.283Z,10.20
2023-11-08T14:03:26.150Z,10.30
2023-11-08T14:18:28.498Z,10.10
2023-11-08T14:33:31.207Z,9.70
2023-11-08T14:48:33.799Z,9.90
2023-11-08T15:03:36.562Z,9.80
2023-11-08T15:18:39.047Z,9.80
2023-11-08T15:33:41.545Z,9.70
2023-11-08T15:48:44.260Z,9.60
2023-11-08T16:03:50.617Z,9.60
2023-11-08T16:18:53.295Z,9.40
2023-11-08T16:33:57.305Z,9.60
2023-11-08T16:49:00.064Z,9.70
2023-11-08T17:04:04.338Z,9.30
2023-11-08T17:19:06.916Z,9.40
2023-11-08T17:34:11.042Z,9.60
2023-11-08T17:49:13.543Z,9.50
2023-11-08T18:04:16.075Z,9.20
2023-11-08T18:19:18.653Z,9.40
2023-11-08T18:34:21.254Z,9.10
2023-11-08T18:49:23.934Z,9.10
2023-11-08T19:04:26.695Z,9.30
2023-11-08T19:19:29.264Z,9.40
2023-11-08T19:34:32.787Z,9.20
2023-11-08T19:49:35.339Z,9.00
2023-11-08T20:04:37.920Z,8.80
2023-11-08T20:19:40.676Z,9.00
2023-11-08T20:34:44.214Z,8.80
2023-11-08T20:49:47.033Z,8.70
2023-11-08T21:04:49.491Z,8.70
2023-11-08T21:19:52.343Z,8.50
2023-11-08T21:34:55.275Z,8.40
2023-11-08T21:49:57.778Z,8.50
2023-11-08T22:05:00.887Z,8.40
2023-11-08T22:20:03.557Z,8.50
2023-11-08T22:35:06.941Z,8.60
2023-11-08T22:50:10.938Z,8.60
2023-11-08T23:05:13.598Z,8.60
2023-11-08T23:20:16.176Z,8.60
2023-11-08T23:35:18.632Z,8.80
2023-11-08T23:50:21.045Z,8.80
